createdAt,value
2022-10-03T00:02:04.980Z,14.18
2022-10-03T00:04:19.569Z,14.18
2022-10-03T00:06:33.390Z,14.18
2022-10-03T00:09:04.161Z,14.18
2022-10-03T00:11:12.844Z,14.18
2022-10-03T00:13:22.465Z,14.18
2022-10-03T00:15:28.333Z,14.17
2022-10-03T00:17:40.751Z,14.17
2022-10-03T00:19:51.222Z,14.17
2022-10-03T00:22:04.191Z,14.15
2022-10-03T00:24:15.767Z,14.16
2022-10-03T00:26:28.421Z,14.17
2022-10-03T00:28:52.725Z,14.16
2022-10-03T00:31:07.370Z,14.16
2022-10-03T00:33:19.818Z,14.15
2022-10-03T00:35:34.203Z,14.15
2022-10-03T00:37:41.289Z,14.15
2022-10-03T00:39:55.229Z,14.15
2022-10-03T00:42:31.781Z,14.14
2022-10-03T00:45:04.846Z,14.15
2022-10-03T00:47:40.477Z,14.15
2022-10-03T00:50:33.625Z,14.13
2022-10-03T00:52:52.528Z,14.13
2022-10-03T00:55:04.476Z,14.13
2022-10-03T00:57:20.309Z,14.11
2022-10-03T00:59:37.990Z,14.10
2022-10-03T01:01:46.742Z,14.08
2022-10-03T01:03:56.984Z,14.07
2022-10-03T01:06:10.479Z,14.07
2022-10-03T01:08:46.727Z,14.07
2022-10-03T01:10:55.076Z,14.07
2022-10-03T01:13:09.025Z,14.06
2022-10-03T01:15:20.461Z,14.07
2022-10-03T01:17:33.464Z,14.08
2022-10-03T01:19:59.512Z,14.09
2022-10-03T01:22:16.664Z,14.09
2022-10-03T01:24:48.672Z,14.09
2022-10-03T01:26:56.706Z,14.09
2022-10-03T01:29:21.730Z,14.07
2022-10-03T01:31:27.942Z,14.08
2022-10-03T01:33:33.421Z,14.06
2022-10-03T01:35:43.007Z,14.03
2022-10-03T01:37:52.578Z,14.05
2022-10-03T01:39:58.519Z,14.05
2022-10-03T01:42:07.138Z,14.03
2022-10-03T01:44:16.386Z,14.03
2022-10-03T01:46:22.900Z,14.00
2022-10-03T01:48:32.222Z,13.98
2022-10-03T01:50:39.298Z,13.98
2022-10-03T01:52:49.189Z,14.01
2022-10-03T01:54:57.830Z,14.00
2022-10-03T01:57:04.077Z,14.01
2022-10-03T01:59:11.532Z,14.01
2022-10-03T02:01:22.482Z,14.02
2022-10-03T02:03:29.637Z,14.02
2022-10-03T02:05:40.077Z,14.04
2022-10-03T02:07:48.486Z,14.03
2022-10-03T02:09:59.141Z,14.04
2022-10-03T02:12:09.291Z,14.04
2022-10-03T02:14:23.096Z,14.02
2022-10-03T02:16:35.052Z,14.02
2022-10-03T02:18:44.984Z,14.02
2022-10-03T02:20:50.360Z,14.01
2022-10-03T02:22:55.453Z,14.00
2022-10-03T02:25:10.508Z,14.02
2022-10-03T02:27:42.132Z,14.03
2022-10-03T02:29:57.012Z,14.02
2022-10-03T02:32:38.633Z,14.00
2022-10-03T02:35:14.937Z,13.97
2022-10-03T02:37:33.937Z,13.96
2022-10-03T02:40:21.573Z,13.96
2022-10-03T02:42:52.185Z,13.90
2022-10-03T02:45:15.310Z,13.88
2022-10-03T02:47:48.811Z,13.89
2022-10-03T02:50:23.954Z,13.92
2022-10-03T02:53:04.750Z,13.91
2022-10-03T02:55:28.928Z,13.89
2022-10-03T02:57:57.212Z,13.84
2022-10-03T03:00:09.983Z,13.81
2022-10-03T03:02:33.444Z,13.80
2022-10-03T03:04:53.225Z,13.79
2022-10-03T03:07:12.638Z,13.78
2022-10-03T03:09:54.542Z,13.80
2022-10-03T03:12:30.491Z,13.82
2022-10-03T03:15:08.388Z,13.85
2022-10-03T03:17:23.353Z,13.85
2022-10-03T03:19:47.967Z,13.86
2022-10-03T03:21:54.841Z,13.87
2022-10-03T03:24:36.340Z,13.89
2022-10-03T03:27:10.189Z,13.89
2022-10-03T03:29:21.478Z,13.89
2022-10-03T03:31:31.450Z,13.91
2022-10-03T03:33:41.145Z,13.91
2022-10-03T03:35:57.498Z,13.93
2022-10-03T03:38:08.011Z,13.95
2022-10-03T03:40:29.543Z,13.96
2022-10-03T03:42:56.754Z,13.96
2022-10-03T03:45:09.629Z,13.96
2022-10-03T03:47:22.979Z,13.98
2022-10-03T03:49:32.498Z,13.97
2022-10-03T03:51:43.620Z,13.99
2022-10-03T03:54:19.656Z,13.98
2022-10-03T03:56:35.439Z,13.98
2022-10-03T03:58:41.854Z,13.98
2022-10-03T04:01:00.201Z,13.99
2022-10-03T04:03:22.210Z,14.00
2022-10-03T04:05:36.950Z,14.00
2022-10-03T04:07:54.631Z,14.03
2022-10-03T04:10:22.646Z,14.03
2022-10-03T04:12:38.617Z,14.06
2022-10-03T04:15:01.000Z,14.07
2022-10-03T04:17:35.203Z,14.09
2022-10-03T04:19:49.618Z,14.08
2022-10-03T04:22:00.620Z,14.08
2022-10-03T04:24:19.750Z,14.07
2022-10-03T04:26:31.205Z,14.06
2022-10-03T04:28:46.441Z,14.04
2022-10-03T04:30:58.395Z,14.06
2022-10-03T04:33:10.371Z,14.04
2022-10-03T04:35:26.255Z,14.04
2022-10-03T04:37:33.368Z,14.04
2022-10-03T04:39:39.017Z,14.05
2022-10-03T04:41:47.351Z,14.05
2022-10-03T04:44:00.280Z,14.04
2022-10-03T04:46:16.376Z,14.01
2022-10-03T04:48:28.985Z,14.01
2022-10-03T04:50:38.109Z,13.99
2022-10-03T04:52:44.028Z,13.97
2022-10-03T04:54:53.208Z,13.95
2022-10-03T04:57:03.124Z,13.92
2022-10-03T04:59:14.047Z,13.89
2022-10-03T05:01:21.598Z,13.86
2022-10-03T05:03:33.317Z,13.83
2022-10-03T05:05:49.630Z,13.79
2022-10-03T05:07:59.738Z,13.75
2022-10-03T05:10:18.191Z,13.70
2022-10-03T05:12:29.906Z,13.64
2022-10-03T05:14:51.924Z,13.61
2022-10-03T05:16:58.302Z,13.55
2022-10-03T05:19:11.572Z,13.54
2022-10-03T05:21:16.919Z,13.52
2022-10-03T05:23:26.128Z,13.50
2022-10-03T05:25:36.430Z,13.50
2022-10-03T05:27:45.290Z,13.50
2022-10-03T05:29:53.780Z,13.50
2022-10-03T05:32:07.999Z,13.49
2022-10-03T05:34:22.011Z,13.48
2022-10-03T05:36:34.247Z,13.44
2022-10-03T05:39:20.339Z,13.40
2022-10-03T05:41:26.805Z,13.38
2022-10-03T05:43:38.876Z,13.37
2022-10-03T05:45:49.867Z,13.35
2022-10-03T05:47:55.508Z,13.35
2022-10-03T05:50:49.312Z,13.32
2022-10-03T05:53:08.633Z,13.29
2022-10-03T05:55:22.021Z,13.28
2022-10-03T05:57:44.991Z,13.28
2022-10-03T06:00:07.302Z,13.26
2022-10-03T06:02:46.521Z,13.19
2022-10-03T06:05:08.939Z,13.15
2022-10-03T06:07:20.933Z,13.15
2022-10-03T06:09:39.095Z,13.13
2022-10-03T06:11:55.971Z,13.14
2022-10-03T06:14:17.255Z,13.14
2022-10-03T06:16:30.252Z,13.15
2022-10-03T06:18:55.473Z,13.19
2022-10-03T06:21:14.107Z,13.23
2022-10-03T06:23:34.103Z,13.28
2022-10-03T06:26:18.228Z,13.32
2022-10-03T06:28:42.911Z,13.41
2022-10-03T06:31:11.267Z,13.48
2022-10-03T06:33:57.541Z,13.50
2022-10-03T06:36:34.601Z,13.54
2022-10-03T06:39:21.821Z,13.56
2022-10-03T06:41:48.073Z,13.56
2022-10-03T06:44:05.637Z,13.59
2022-10-03T06:46:39.605Z,13.61
2022-10-03T06:49:13.833Z,13.64
2022-10-03T06:51:32.844Z,13.66
2022-10-03T06:54:00.774Z,13.67
2022-10-03T06:56:26.180Z,13.67
2022-10-03T06:59:07.624Z,13.67
2022-10-03T07:02:10.384Z,13.70
2022-10-03T07:04:31.949Z,13.73
2022-10-03T07:06:43.662Z,13.75
2022-10-03T07:09:28.890Z,13.78
2022-10-03T07:11:43.481Z,13.76
2022-10-03T07:14:09.095Z,13.78
2022-10-03T07:16:52.003Z,13.82
2022-10-03T07:19:20.122Z,13.88
2022-10-03T07:21:34.865Z,13.93
2022-10-03T07:24:16.817Z,13.99
2022-10-03T07:26:55.451Z,14.04
2022-10-03T07:29:09.342Z,14.03
2022-10-03T07:31:17.871Z,14.01
2022-10-03T07:33:39.282Z,13.97
2022-10-03T07:36:03.803Z,13.98
2022-10-03T07:40:57.915Z,13.99
2022-10-03T07:43:25.799Z,14.03
2022-10-03T07:45:36.138Z,14.07
2022-10-03T07:48:28.740Z,14.14
2022-10-03T07:50:57.948Z,14.20
2022-10-03T07:53:12.542Z,14.22
2022-10-03T07:55:28.936Z,14.27
2022-10-03T07:57:55.913Z,14.34
2022-10-03T08:00:12.123Z,14.42
2022-10-03T08:02:33.668Z,14.48
2022-10-03T08:05:06.720Z,14.52
2022-10-03T08:07:23.642Z,14.57
2022-10-03T08:09:50.810Z,14.63
2022-10-03T08:12:33.283Z,14.68
2022-10-03T08:14:47.794Z,14.72
2022-10-03T08:17:31.824Z,14.74
2022-10-03T08:19:51.890Z,14.79
2022-10-03T08:22:02.490Z,14.76
2022-10-03T08:24:13.781Z,14.78
2022-10-03T08:26:20.565Z,14.82
2022-10-03T08:28:35.355Z,14.83
2022-10-03T08:30:53.002Z,14.89
2022-10-03T08:33:16.737Z,14.91
2022-10-03T08:35:38.781Z,15.02
2022-10-03T08:38:09.553Z,15.09
2022-10-03T08:40:46.334Z,15.17
2022-10-03T08:43:29.901Z,15.14
2022-10-03T08:45:52.072Z,15.16
2022-10-03T08:48:33.237Z,15.23
2022-10-03T08:51:05.604Z,15.21
2022-10-03T08:53:37.160Z,15.19
2022-10-03T08:55:49.776Z,15.15
2022-10-03T08:58:30.196Z,15.11
2022-10-03T09:00:48.212Z,15.19
2022-10-03T09:03:34.435Z,15.29
2022-10-03T09:06:09.965Z,15.43
2022-10-03T09:08:38.220Z,15.51
2022-10-03T09:11:07.403Z,15.55
2022-10-03T09:13:48.935Z,15.60
2022-10-03T09:16:40.128Z,15.48
2022-10-03T09:18:51.298Z,15.43
2022-10-03T09:21:37.491Z,15.30
2022-10-03T09:23:57.588Z,15.24
2022-10-03T09:26:19.090Z,15.20
2022-10-03T09:28:49.550Z,15.19
2022-10-03T09:30:56.969Z,15.21
2022-10-03T09:33:28.939Z,15.23
2022-10-03T09:35:46.455Z,15.23
2022-10-03T09:38:03.545Z,15.23
2022-10-03T09:40:27.063Z,15.22
2022-10-03T09:42:59.246Z,15.19
2022-10-03T09:45:14.878Z,15.25
2022-10-03T09:47:51.213Z,15.52
2022-10-03T09:50:27.871Z,16.01
2022-10-03T09:52:42.358Z,16.38
2022-10-03T09:55:03.659Z,16.51
2022-10-03T09:57:38.775Z,16.65
2022-10-03T09:59:53.663Z,16.66
2022-10-03T10:02:08.234Z,16.57
2022-10-03T10:04:54.417Z,16.48
2022-10-03T10:07:35.269Z,16.30
2022-10-03T10:09:54.177Z,16.21
2022-10-03T10:12:23.859Z,16.15
2022-10-03T10:14:44.824Z,16.07
2022-10-03T10:17:04.994Z,16.00
2022-10-03T10:19:30.208Z,15.94
2022-10-03T10:21:47.818Z,15.79
2022-10-03T10:24:01.016Z,15.79
2022-10-03T10:26:49.572Z,15.77
2022-10-03T10:29:38.090Z,15.79
2022-10-03T10:32:26.930Z,15.76
2022-10-03T10:35:07.300Z,15.87
2022-10-03T10:37:49.076Z,16.11
2022-10-03T10:40:22.791Z,16.41
2022-10-03T10:43:01.678Z,16.69
2022-10-03T10:45:40.216Z,16.97
2022-10-03T10:48:27.242Z,16.93
2022-10-03T10:50:57.341Z,16.86
2022-10-03T10:53:40.046Z,16.96
2022-10-03T10:56:23.365Z,17.17
2022-10-03T10:59:09.120Z,16.99
2022-10-03T11:01:48.270Z,16.80
2022-10-03T11:04:31.879Z,16.64
2022-10-03T11:07:03.525Z,16.58
2022-10-03T11:09:48.065Z,16.51
2022-10-03T11:12:38.654Z,16.63
2022-10-03T11:15:36.093Z,16.82
2022-10-03T11:18:08.412Z,16.94
2022-10-03T11:20:41.357Z,17.03
2022-10-03T11:23:21.007Z,17.20
2022-10-03T11:25:54.221Z,17.43
2022-10-03T11:28:41.804Z,17.46
2022-10-03T11:31:13.130Z,17.21
2022-10-03T11:33:43.250Z,17.13
2022-10-03T11:36:33.433Z,17.05
2022-10-03T11:38:59.222Z,16.93
2022-10-03T11:41:09.950Z,16.86
2022-10-03T11:43:46.477Z,16.78
2022-10-03T11:45:52.971Z,16.72
2022-10-03T11:48:01.267Z,16.63
2022-10-03T11:50:29.315Z,16.50
2022-10-03T11:52:35.101Z,16.46
2022-10-03T11:54:40.929Z,16.44
2022-10-03T11:56:45.940Z,16.36
2022-10-03T11:58:58.262Z,16.35
2022-10-03T12:01:22.356Z,16.34
2022-10-03T12:03:29.995Z,16.37
2022-10-03T12:05:44.273Z,16.44
2022-10-03T12:08:08.947Z,16.50
2022-10-03T12:10:18.283Z,16.48
2022-10-03T12:12:30.137Z,16.50
2022-10-03T12:14:38.190Z,16.51
2022-10-03T12:16:54.185Z,16.55
2022-10-03T12:19:02.184Z,16.54
2022-10-03T12:21:11.179Z,16.55
2022-10-03T12:23:25.267Z,16.60
2022-10-03T12:25:30.261Z,16.70
2022-10-03T12:27:39.664Z,16.76
2022-10-03T12:29:48.145Z,16.81
2022-10-03T12:32:01.277Z,16.88
2022-10-03T12:34:19.012Z,16.94
2022-10-03T12:36:29.181Z,16.95
2022-10-03T12:38:46.534Z,16.99
2022-10-03T12:41:01.835Z,17.04
2022-10-03T12:43:20.293Z,17.03
2022-10-03T12:45:32.399Z,17.03
2022-10-03T12:47:55.921Z,16.96
2022-10-03T12:50:04.816Z,16.99
2022-10-03T12:52:15.511Z,17.07
2022-10-03T12:54:29.977Z,17.14
2022-10-03T12:56:39.595Z,17.13
2022-10-03T12:58:53.651Z,17.15
2022-10-03T13:01:04.803Z,17.18
2022-10-03T13:03:19.052Z,17.19
2022-10-03T13:05:37.026Z,17.21
2022-10-03T13:07:46.911Z,17.23
2022-10-03T13:10:19.586Z,17.23
2022-10-03T13:12:31.329Z,17.18
2022-10-03T13:15:02.299Z,17.25
2022-10-03T13:17:14.796Z,17.33
2022-10-03T13:19:19.894Z,17.40
2022-10-03T13:21:47.542Z,17.46
2022-10-03T13:23:53.998Z,17.55
2022-10-03T13:26:11.040Z,17.64
2022-10-03T13:28:18.701Z,17.67
2022-10-03T13:30:24.548Z,17.68
2022-10-03T13:32:32.998Z,17.65
2022-10-03T13:34:44.542Z,17.60
2022-10-03T13:36:51.390Z,17.54
2022-10-03T13:39:13.699Z,17.49
2022-10-03T13:41:25.473Z,17.48
2022-10-03T13:43:36.229Z,17.44
2022-10-03T13:45:42.212Z,17.42
2022-10-03T13:47:51.866Z,17.43
2022-10-03T13:49:58.834Z,17.41
2022-10-03T13:52:07.403Z,17.42
2022-10-03T13:54:13.672Z,17.46
2022-10-03T13:56:22.617Z,17.48
2022-10-03T13:58:35.564Z,17.33
2022-10-03T14:00:50.993Z,17.26
2022-10-03T14:03:13.699Z,17.21
2022-10-03T14:05:33.595Z,17.27
2022-10-03T14:07:43.894Z,17.21
2022-10-03T14:10:02.045Z,17.06
2022-10-03T14:12:13.519Z,17.06
2022-10-03T14:14:44.007Z,17.06
2022-10-03T14:16:54.887Z,17.03
2022-10-03T14:19:05.149Z,17.07
2022-10-03T14:21:33.295Z,17.13
2022-10-03T14:23:39.672Z,17.19
2022-10-03T14:25:47.063Z,17.21
2022-10-03T14:27:55.345Z,17.26
2022-10-03T14:30:06.730Z,17.28
2022-10-03T14:32:42.440Z,17.29
2022-10-03T14:34:48.208Z,17.18
2022-10-03T14:36:55.230Z,17.07
2022-10-03T14:39:26.801Z,16.98
2022-10-03T14:41:45.303Z,16.90
2022-10-03T14:43:51.229Z,16.74
2022-10-03T14:45:57.178Z,16.63
2022-10-03T14:48:07.596Z,16.55
2022-10-03T14:50:18.855Z,16.51
2022-10-03T14:52:28.925Z,16.46
2022-10-03T14:54:37.564Z,16.46
2022-10-03T14:56:44.645Z,16.48
2022-10-03T14:58:50.315Z,16.41
2022-10-03T15:00:55.376Z,16.33
2022-10-03T15:02:58.431Z,16.27
2022-10-03T15:05:07.992Z,16.21
2022-10-03T15:07:14.616Z,16.20
2022-10-03T15:09:20.198Z,16.16
2022-10-03T15:11:26.993Z,16.12
2022-10-03T15:13:34.794Z,16.10
2022-10-03T15:15:40.238Z,16.12
2022-10-03T15:17:47.864Z,16.13
2022-10-03T15:19:54.997Z,16.14
2022-10-03T15:22:05.825Z,16.12
2022-10-03T15:24:12.709Z,16.12
2022-10-03T15:26:19.276Z,16.10
2022-10-03T15:28:24.405Z,16.06
2022-10-03T15:30:31.941Z,16.05
2022-10-03T15:32:37.976Z,16.05
2022-10-03T15:34:42.170Z,16.07
2022-10-03T15:36:48.881Z,16.11
2022-10-03T15:38:55.211Z,16.12
2022-10-03T15:41:10.049Z,16.13
2022-10-03T15:43:28.549Z,16.14
2022-10-03T15:45:33.691Z,16.15
2022-10-03T15:47:42.647Z,16.17
2022-10-03T15:49:50.169Z,16.20
2022-10-03T15:51:54.363Z,16.19
2022-10-03T15:53:59.550Z,16.18
2022-10-03T15:56:12.202Z,16.17
2022-10-03T15:58:18.712Z,16.18
2022-10-03T16:00:24.629Z,16.10
2022-10-03T16:02:33.598Z,16.02
2022-10-03T16:04:40.777Z,16.01
2022-10-03T16:06:49.406Z,16.01
2022-10-03T16:08:59.505Z,15.98
2022-10-03T16:11:09.145Z,15.98
2022-10-03T16:13:25.128Z,15.95
2022-10-03T16:15:37.946Z,15.92
2022-10-03T16:17:46.008Z,15.91
2022-10-03T16:19:54.255Z,15.91
2022-10-03T16:22:06.371Z,15.89
2022-10-03T16:24:19.021Z,15.86
2022-10-03T16:26:24.842Z,15.83
2022-10-03T16:28:32.453Z,15.81
2022-10-03T16:30:38.719Z,15.80
2022-10-03T16:32:46.763Z,15.76
2022-10-03T16:34:50.497Z,15.72
2022-10-03T16:36:54.517Z,15.70
2022-10-03T16:38:59.295Z,15.65
2022-10-03T16:41:05.101Z,15.59
2022-10-03T16:43:11.464Z,15.56
2022-10-03T16:45:25.228Z,15.53
2022-10-03T16:47:37.864Z,15.50
2022-10-03T16:50:02.236Z,15.44
2022-10-03T16:52:07.225Z,15.38
2022-10-03T16:54:13.086Z,15.36
2022-10-03T16:56:18.150Z,15.31
2022-10-03T16:58:26.290Z,15.27
2022-10-03T17:00:36.023Z,15.20
2022-10-03T17:02:39.848Z,15.14
2022-10-03T17:04:45.390Z,15.08
2022-10-03T17:06:49.843Z,15.01
2022-10-03T17:08:54.136Z,14.91
2022-10-03T17:10:58.602Z,14.83
2022-10-03T17:13:05.059Z,14.75
2022-10-03T17:15:10.064Z,14.68
2022-10-03T17:17:25.517Z,14.61
2022-10-03T17:19:33.601Z,14.56
2022-10-03T17:21:39.394Z,14.49
2022-10-03T17:23:46.741Z,14.42
2022-10-03T17:25:57.074Z,14.35
2022-10-03T17:28:00.696Z,14.29
2022-10-03T17:30:07.300Z,14.21
2022-10-03T17:32:16.338Z,14.16
2022-10-03T17:34:22.955Z,14.10
2022-10-03T17:36:52.691Z,14.01
2022-10-03T17:39:03.440Z,13.91
2022-10-03T17:41:18.949Z,13.87
2022-10-03T17:43:31.566Z,13.84
2022-10-03T17:45:40.144Z,13.78
2022-10-03T17:47:52.069Z,13.71
2022-10-03T17:50:00.435Z,13.64
2022-10-03T17:52:05.280Z,13.56
2022-10-03T17:54:15.155Z,13.48
2022-10-03T17:56:22.019Z,13.41
2022-10-03T17:58:28.682Z,13.34
2022-10-03T18:00:35.777Z,13.29
2022-10-03T18:02:46.930Z,13.27
2022-10-03T18:04:57.354Z,13.26
2022-10-03T18:07:03.331Z,13.19
2022-10-03T18:09:10.986Z,13.16
2022-10-03T18:11:20.740Z,13.08
2022-10-03T18:13:27.731Z,13.02
2022-10-03T18:16:11.232Z,12.91
2022-10-03T18:18:50.368Z,12.79
2022-10-03T18:20:58.265Z,12.74
2022-10-03T18:23:05.094Z,12.68
2022-10-03T18:25:28.538Z,12.60
2022-10-03T18:27:53.871Z,12.54
2022-10-03T18:29:58.343Z,12.52
2022-10-03T18:32:12.427Z,12.48
2022-10-03T18:34:20.103Z,12.45
2022-10-03T18:36:27.649Z,12.46
2022-10-03T18:38:32.559Z,12.43
2022-10-03T18:40:43.342Z,12.43
2022-10-03T18:42:50.335Z,12.42
2022-10-03T18:44:54.277Z,12.40
2022-10-03T18:47:08.755Z,12.38
2022-10-03T18:49:35.157Z,12.34
2022-10-03T18:51:42.413Z,12.31
2022-10-03T18:53:47.978Z,12.27
2022-10-03T18:55:57.180Z,12.23
2022-10-03T18:58:09.851Z,12.20
2022-10-03T19:00:19.015Z,12.18
2022-10-03T19:02:27.136Z,12.16
2022-10-03T19:04:39.795Z,12.13
2022-10-03T19:06:46.808Z,12.10
2022-10-03T19:08:52.004Z,12.08
2022-10-03T19:10:57.554Z,12.06
2022-10-03T19:13:04.775Z,12.05
2022-10-03T19:15:18.938Z,12.04
2022-10-03T19:17:25.583Z,12.01
2022-10-03T19:19:33.436Z,12.01
2022-10-03T19:21:39.765Z,12.05
2022-10-03T19:23:47.314Z,12.03
2022-10-03T19:25:53.490Z,11.97
2022-10-03T19:28:01.613Z,11.90
2022-10-03T19:30:08.229Z,11.87
2022-10-03T19:32:19.429Z,11.86
2022-10-03T19:34:25.740Z,11.85
2022-10-03T19:36:31.118Z,11.84
2022-10-03T19:38:35.736Z,11.84
2022-10-03T19:40:51.416Z,11.81
2022-10-03T19:42:59.197Z,11.76
2022-10-03T19:45:02.551Z,11.71
2022-10-03T19:47:13.229Z,11.65
2022-10-03T19:49:27.636Z,11.61
2022-10-03T19:51:30.765Z,11.58
2022-10-03T19:53:33.880Z,11.55
2022-10-03T19:55:39.050Z,11.54
2022-10-03T19:57:46.435Z,11.53
2022-10-03T19:59:52.519Z,11.55
2022-10-03T20:01:55.581Z,11.58
2022-10-03T20:04:36.159Z,11.55
2022-10-03T20:06:41.819Z,11.54
2022-10-03T20:08:46.874Z,11.48
2022-10-03T20:11:07.803Z,11.45
2022-10-03T20:13:12.528Z,11.44
2022-10-03T20:15:21.008Z,11.42
2022-10-03T20:17:25.021Z,11.40
2022-10-03T20:19:29.146Z,11.38
2022-10-03T20:21:33.501Z,11.38
2022-10-03T20:23:41.557Z,11.36
2022-10-03T20:25:50.044Z,11.32
2022-10-03T20:27:55.315Z,11.34
2022-10-03T20:30:07.660Z,11.31
2022-10-03T20:32:15.517Z,11.29
2022-10-03T20:34:23.185Z,11.29
2022-10-03T20:36:28.006Z,11.28
2022-10-03T20:38:41.609Z,11.27
2022-10-03T20:40:46.279Z,11.23
2022-10-03T20:42:50.261Z,11.21
2022-10-03T20:44:59.141Z,11.17
2022-10-03T20:47:07.785Z,11.15
2022-10-03T20:49:27.457Z,11.13
2022-10-03T20:51:40.398Z,11.10
2022-10-03T20:53:44.334Z,11.09
2022-10-03T20:55:50.556Z,11.06
2022-10-03T20:58:01.170Z,11.02
2022-10-03T21:00:08.863Z,10.99
2022-10-03T21:02:20.874Z,10.98
2022-10-03T21:04:27.968Z,10.93
2022-10-03T21:06:34.251Z,10.94
2022-10-03T21:08:38.720Z,10.97
2022-10-03T21:10:45.602Z,10.97
2022-10-03T21:12:50.413Z,10.97
2022-10-03T21:14:57.620Z,10.95
2022-10-03T21:17:00.876Z,10.93
2022-10-03T21:19:12.946Z,10.92
2022-10-03T21:21:20.639Z,10.93
2022-10-03T21:23:25.259Z,10.90
2022-10-03T21:25:31.840Z,10.93
2022-10-03T21:27:35.460Z,10.90
2022-10-03T21:29:42.285Z,10.87
2022-10-03T21:31:51.112Z,10.85
2022-10-03T21:34:01.006Z,10.82
2022-10-03T21:36:09.974Z,10.76
2022-10-03T21:38:20.671Z,10.69
2022-10-03T21:40:43.798Z,10.62
2022-10-03T21:42:55.879Z,10.58
2022-10-03T21:45:10.620Z,10.52
2022-10-03T21:47:23.153Z,10.48
2022-10-03T21:49:38.664Z,10.44
2022-10-03T21:51:59.464Z,10.40
2022-10-03T21:54:18.584Z,10.39
2022-10-03T21:56:43.199Z,10.37
2022-10-03T21:59:08.668Z,10.35
2022-10-03T22:01:15.778Z,10.35
2022-10-03T22:03:23.236Z,10.32
2022-10-03T22:05:33.976Z,10.31
2022-10-03T22:07:39.881Z,10.27
2022-10-03T22:09:48.555Z,10.28
2022-10-03T22:11:55.261Z,10.27
2022-10-03T22:14:05.136Z,10.27
2022-10-03T22:16:15.452Z,10.28
2022-10-03T22:18:20.542Z,10.29
2022-10-03T22:20:24.536Z,10.29
2022-10-03T22:22:36.295Z,10.29
2022-10-03T22:24:47.980Z,10.29
2022-10-03T22:26:54.910Z,10.35
2022-10-03T22:29:02.950Z,10.33
2022-10-03T22:31:13.154Z,10.31
2022-10-03T22:33:19.970Z,10.30
2022-10-03T22:35:34.607Z,10.24
2022-10-03T22:37:38.834Z,10.22
2022-10-03T22:39:43.454Z,10.19
2022-10-03T22:41:48.554Z,10.15
2022-10-03T22:43:53.011Z,10.12
2022-10-03T22:45:57.032Z,10.08
2022-10-03T22:48:02.111Z,10.07
2022-10-03T22:50:09.043Z,10.07
2022-10-03T22:52:18.456Z,10.05
2022-10-03T22:54:21.556Z,10.05
2022-10-03T22:56:45.375Z,10.06
2022-10-03T22:58:48.544Z,10.04
2022-10-03T23:00:53.093Z,10.04
2022-10-03T23:02:59.842Z,10.06
2022-10-03T23:05:04.771Z,10.03
2022-10-03T23:07:40.093Z,10.02
2022-10-03T23:09:49.568Z,9.96
2022-10-03T23:11:55.820Z,9.90
2022-10-03T23:14:02.234Z,9.84
2022-10-03T23:16:11.254Z,9.83
2022-10-03T23:18:39.025Z,9.74
2022-10-03T23:20:53.248Z,9.73
2022-10-03T23:23:00.556Z,9.72
2022-10-03T23:25:08.165Z,9.72
2022-10-03T23:27:39.481Z,9.71
2022-10-03T23:29:42.566Z,9.64
2022-10-03T23:32:02.120Z,9.59
2022-10-03T23:34:05.434Z,9.56
2022-10-03T23:36:15.574Z,9.55
2022-10-03T23:39:02.575Z,9.54
2022-10-03T23:41:06.481Z,9.51
2022-10-03T23:43:31.846Z,9.49
2022-10-03T23:45:36.668Z,9.46
2022-10-03T23:47:41.760Z,9.44
2022-10-03T23:49:47.314Z,9.45
2022-10-03T23:51:50.420Z,9.45
2022-10-03T23:53:58.419Z,9.45
2022-10-03T23:56:03.616Z,9.45
2022-10-03T23:58:18.533Z,9.43
